Time;durP1;ratioP1;P1;durP2;ratioP2;P2;SDS_P1;SDS_P2;PMS_P1;PMS_P2;Temp;Humidity;BMP_temperature;BMP_pressure;BME280_temperature;BME280_humidity;BME280_pressure;Samples;Min_cycle;Max_cycle;Signal;HPM_P1;HPM_P2
2023/07/01 00:00:27;;;;;;;;;19.14;17.57;;;;;;;;2059482;27;3574162;-82
2023/07/01 00:01:40;;;;;;;;;18.67;15.67;;;;;;;;2043049;27;2813858;-82
2023/07/01 00:02:52;;;;;;;;;12.00;9.00;;;;;;;;2036829;27;2757545;-79
2023/07/01 00:04:03;;;;;;;;;8.00;8.00;;;;;;;;2036347;27;2746142;-78
2023/07/01 00:05:16;;;;;;;;;16.71;13.86;;;;;;;;2053065;27;3540865;-78
2023/07/01 00:06:27;;;;;;;;;13.60;12.20;;;;;;;;2060483;27;3507562;-77
2023/07/01 00:07:38;;;;;;;;;10.25;9.25;;;;;;;;2067914;27;1819095;-77
2023/07/01 00:08:49;;;;;;;;;8.00;6.00;;;;;;;;2040221;27;2737086;-80
2023/07/01 00:10:00;;;;;;;;;10.67;7.67;;;;;;;;2060573;27;3466332;-80
2023/07/01 00:11:10;;;;;;;;;9.00;6.33;;;;;;;;2038546;27;2741017;-79
2023/07/01 00:12:21;;;;;;;;;6.33;5.33;;;;;;;;2049700;27;2739401;-80
2023/07/01 00:13:32;;;;;;;;;8.00;7.00;;;;;;;;2062846;27;2733611;-79
2023/07/01 00:14:43;;;;;;;;;7.00;6.00;;;;;;;;2055312;27;3449188;-80
2023/07/01 00:15:55;;;;;;;;;5.00;5.00;;;;;;;;2063941;27;3462744;-79
2023/07/01 00:17:09;;;;;;;;;5.67;5.67;;;;;;;;2038643;27;3438762;-80
2023/07/01 00:18:19;;;;;;;;;5.33;5.33;;;;;;;;2043066;27;3440895;-80
2023/07/01 00:19:30;;;;;;;;;7.67;4.00;;;;;;;;2058848;27;3477355;-79
2023/07/01 00:20:41;;;;;;;;;2.00;2.00;;;;;;;;2053510;27;2741948;-79
2023/07/01 00:21:51;;;;;;;;;4.00;3.67;;;;;;;;2035113;27;2745583;-79
2023/07/01 00:23:02;;;;;;;;;4.00;4.00;;;;;;;;2064014;27;3470054;-79
2023/07/01 00:24:13;;;;;;;;;4.33;3.00;;;;;;;;2054256;27;3451291;-79
2023/07/01 00:25:24;;;;;;;;;3.00;3.00;;;;;;;;2062059;27;2750288;-79
2023/07/01 00:26:35;;;;;;;;;5.00;5.00;;;;;;;;2038793;27;2746101;-79
2023/07/01 00:27:46;;;;;;;;;3.00;3.00;;;;;;;;2068087;27;2733606;-80
2023/07/01 00:28:57;;;;;;;;;3.00;2.00;;;;;;;;2016501;27;2749221;-80
2023/07/01 00:30:08;;;;;;;;;3.67;3.67;;;;;;;;2059888;27;2747210;-80
2023/07/01 00:31:18;;;;;;;;;7.00;3.67;;;;;;;;2053670;27;2752434;-80
2023/07/01 00:32:29;;;;;;;;;4.33;3.33;;;;;;;;2062799;27;2751897;-80
2023/07/01 00:33:41;;;;;;;;;38.00;31.20;;;;;;;;2061573;27;3606504;-80
2023/07/01 00:34:53;;;;;;;;;57.40;44.00;;;;;;;;2044903;27;3637682;-80
2023/07/01 00:36:05;;;;;;;;;49.00;37.80;;;;;;;;2044370;27;3603387;-80
2023/07/01 00:37:17;;;;;;;;;52.20;41.40;;;;;;;;2027153;27;3597090;-80
2023/07/01 00:38:29;;;;;;;;;53.00;40.60;;;;;;;;2030432;27;3625340;-80
2023/07/01 00:39:41;;;;;;;;;45.60;34.20;;;;;;;;2037291;27;3600227;-80
2023/07/01 00:40:53;;;;;;;;;46.00;38.20;;;;;;;;2044410;27;3589855;-80
2023/07/01 00:42:05;;;;;;;;;68.80;54.80;;;;;;;;2033200;27;3618957;-80
2023/07/01 00:43:17;;;;;;;;;63.00;48.60;;;;;;;;2039061;27;3636649;-80
2023/07/01 00:44:29;;;;;;;;;53.80;40.80;;;;;;;;2041583;27;3615200;-79
2023/07/01 00:45:41;;;;;;;;;48.00;37.60;;;;;;;;2036257;27;3597090;-79
2023/07/01 00:46:53;;;;;;;;;54.20;40.20;;;;;;;;2029061;27;3637697;-78
2023/07/01 00:48:05;;;;;;;;;55.60;44.60;;;;;;;;2029023;27;3617914;-78
2023/07/01 00:49:17;;;;;;;;;54.00;43.00;;;;;;;;2035367;27;3605410;-80
2023/07/01 00:50:29;;;;;;;;;60.20;48.40;;;;;;;;2028742;27;3625216;-80
2023/07/01 00:51:41;;;;;;;;;48.00;38.60;;;;;;;;2040527;27;3598148;-81
2023/07/01 00:52:53;;;;;;;;;41.60;36.40;;;;;;;;2037791;27;3564390;-80
2023/07/01 00:54:06;;;;;;;;;25.00;20.67;;;;;;;;2054467;27;3580442;-81
2023/07/01 00:55:17;;;;;;;;;16.00;13.00;;;;;;;;2020895;27;2811712;-80
2023/07/01 00:56:31;;;;;;;;;15.43;13.57;;;;;;;;2071812;27;1822379;-79
2023/07/01 00:57:41;;;;;;;;;17.00;15.00;;;;;;;;2042027;27;2807566;-80
2023/07/01 00:58:53;;;;;;;;;18.20;14.20;;;;;;;;2040173;27;2798490;-80
2023/07/01 01:00:08;;;;;;;;;7.67;4.00;;;;;;;;2040538;27;3456474;-80
2023/07/01 01:01:22;;;;;;;;;10.67;6.00;;;;;;;;2043201;27;2756042;-81
2023/07/01 01:02:37;;;;;;;;;5.50;5.50;;;;;;;;2040354;27;2740910;-83
2023/07/01 01:04:00;;;;;;;;;7.50;6.33;;;;;;;;2040783;27;2740893;-84
2023/07/01 01:05:15;;;;;;;;;4.67;4.67;;;;;;;;2013489;27;2754609;-84
2023/07/01 01:06:33;;;;;;;;;3.00;3.00;;;;;;;;2040003;27;2747214;-84
2023/07/01 01:07:47;;;;;;;;;3.33;3.33;;;;;;;;2043246;27;2747227;-86
2023/07/01 01:09:01;;;;;;;;;3.00;3.00;;;;;;;;2040785;27;2740958;-84
2023/07/01 01:10:14;;;;;;;;;6.00;5.00;;;;;;;;2033981;27;2746100;-85
2023/07/01 01:11:25;;;;;;;;;3.00;3.00;;;;;;;;2025100;28;2731593;-84
2023/07/01 01:12:39;;;;;;;;;2.67;2.00;;;;;;;;2056475;27;2741916;-84
2023/07/01 01:13:49;;;;;;;;;3.00;2.00;;;;;;;;2015990;27;2749932;-87
2023/07/01 01:15:01;;;;;;;;;3.00;3.00;;;;;;;;2056839;27;2733618;-87
2023/07/01 01:16:14;;;;;;;;;4.50;4.50;;;;;;;;2066621;27;2732595;-87
2023/07/01 01:17:24;;;;;;;;;4.33;4.33;;;;;;;;2010425;27;2750296;-88
2023/07/01 01:18:35;;;;;;;;;6.00;3.00;;;;;;;;2048276;27;2739961;-87
2023/07/01 01:19:52;;;;;;;;;6.00;3.33;;;;;;;;2064384;27;2746105;-85
2023/07/01 01:21:04;;;;;;;;;5.67;5.67;;;;;;;;2015407;27;2745073;-86
2023/07/01 01:22:21;;;;;;;;;3.33;3.33;;;;;;;;2027552;27;2744073;-84
2023/07/01 01:23:34;;;;;;;;;4.00;4.00;;;;;;;;2027962;27;2750414;-83
2023/07/01 01:24:51;;;;;;;;;3.33;3.33;;;;;;;;2059795;27;2742962;-84
2023/07/01 01:26:07;;;;;;;;;4.00;4.00;;;;;;;;2038468;27;2746136;-84
2023/07/01 01:27:20;;;;;;;;;5.00;4.00;;;;;;;;2013919;27;2752550;-84
2023/07/01 01:28:36;;;;;;;;;2.33;2.17;;;;;;;;2060305;27;2741954;-84
2023/07/01 01:29:46;;;;;;;;;4.67;4.33;;;;;;;;2004629;27;2750764;-84
2023/07/01 01:30:58;;;;;;;;;4.67;4.00;;;;;;;;2055538;27;2749239;-83
2023/07/01 01:32:09;;;;;;;;;6.33;5.00;;;;;;;;2037618;27;2742968;-83
2023/07/01 01:33:19;;;;;;;;;8.67;7.00;;;;;;;;2046834;27;2730925;-83
2023/07/01 01:34:34;;;;;;;;;9.67;6.67;;;;;;;;2068965;27;2745092;-84
2023/07/01 01:35:44;;;;;;;;;5.00;3.00;;;;;;;;2018481;27;2752372;-83
2023/07/01 01:36:57;;;;;;;;;10.00;6.00;;;;;;;;2056600;27;2761796;-83
2023/07/01 01:38:12;;;;;;;;;5.00;5.00;;;;;;;;2035770;27;2739915;-84
2023/07/01 01:39:29;;;;;;;;;6.17;6.17;;;;;;;;2054421;27;2738155;-83
2023/07/01 01:40:45;;;;;;;;;6.00;5.33;;;;;;;;2009550;27;3463850;-83
2023/07/01 01:42:03;;;;;;;;;8.33;5.00;;;;;;;;2039364;27;2748529;-83
2023/07/01 01:43:37;;;;;;;;;6.17;5.33;;;;;;;;2069434;27;2743001;-83
2023/07/01 01:44:52;;;;;;;;;4.33;3.00;;;;;;;;2029798;27;2737746;-83
2023/07/01 01:46:07;;;;;;;;;3.17;2.50;;;;;;;;2022524;27;2738834;-83
2023/07/01 01:47:25;;;;;;;;;5.00;3.00;;;;;;;;2010999;27;2752429;-84
2023/07/01 01:48:36;;;;;;;;;3.33;3.33;;;;;;;;2042709;27;3469007;-85
2023/07/01 01:49:48;;;;;;;;;4.00;4.00;;;;;;;;2043559;27;2752347;-86
2023/07/01 01:51:00;;;;;;;;;6.67;5.00;;;;;;;;2040936;27;2745169;-86
2023/07/01 01:52:13;;;;;;;;;7.00;6.00;;;;;;;;2042685;27;2743010;-84
2023/07/01 01:53:26;;;;;;;;;4.00;4.00;;;;;;;;2043517;27;2749239;-85
2023/07/01 01:54:39;;;;;;;;;3.33;3.33;;;;;;;;2068941;27;2741912;-84
2023/07/01 01:55:54;;;;;;;;;4.33;3.00;;;;;;;;2040599;27;2734693;-84
2023/07/01 01:57:04;;;;;;;;;5.00;5.00;;;;;;;;2018524;27;3454399;-84
2023/07/01 01:58:15;;;;;;;;;8.00;5.33;;;;;;;;2048592;27;2743033;-85
2023/07/01 01:59:26;;;;;;;;;8.00;5.67;;;;;;;;2073772;27;1829505;-84
2023/07/01 02:00:36;;;;;;;;;7.33;4.33;;;;;;;;2034519;27;2741928;-84
2023/07/01 02:01:47;;;;;;;;;5.00;4.67;;;;;;;;2051740;27;2745083;-83
2023/07/01 02:02:58;;;;;;;;;7.00;5.00;;;;;;;;2044992;28;2748199;-86
2023/07/01 02:04:09;;;;;;;;;5.00;4.00;;;;;;;;2046095;27;3461687;-87
2023/07/01 02:05:20;;;;;;;;;8.00;5.00;;;;;;;;2063359;27;3474326;-85
2023/07/01 02:06:30;;;;;;;;;6.33;5.67;;;;;;;;2052384;27;2746117;-81
2023/07/01 02:07:42;;;;;;;;;7.00;5.00;;;;;;;;2028658;27;1825304;-81
2023/07/01 02:08:52;;;;;;;;;9.00;6.00;;;;;;;;2042913;27;2744496;-80
2023/07/01 02:10:04;;;;;;;;;8.00;4.00;;;;;;;;2057360;27;2747187;-81
2023/07/01 02:11:14;;;;;;;;;4.33;4.00;;;;;;;;2034622;27;2754495;-81
2023/07/01 02:12:26;;;;;;;;;5.67;4.67;;;;;;;;2065834;27;2750257;-81
2023/07/01 02:13:36;;;;;;;;;7.00;4.00;;;;;;;;2050650;27;3468546;-81
2023/07/01 02:14:47;;;;;;;;;4.00;4.00;;;;;;;;2062315;27;2749255;-83
2023/07/01 02:15:58;;;;;;;;;1.33;1.33;;;;;;;;2067282;27;2732565;-78
2023/07/01 02:17:11;;;;;;;;;3.00;2.60;;;;;;;;2065750;27;2748206;-78
2023/07/01 02:18:21;;;;;;;;;3.33;3.33;;;;;;;;2016239;27;2754519;-79
2023/07/01 02:19:32;;;;;;;;;4.67;4.00;;;;;;;;2067611;27;2739895;-80
2023/07/01 02:20:45;;;;;;;;;6.33;3.50;;;;;;;;2069140;27;2741955;-81
2023/07/01 02:21:58;;;;;;;;;3.67;2.00;;;;;;;;2060325;27;2733602;-81
2023/07/01 02:23:08;;;;;;;;;3.67;3.00;;;;;;;;2012199;27;2744016;-81
2023/07/01 02:24:19;;;;;;;;;3.67;3.00;;;;;;;;2063706;27;2745080;-81
2023/07/01 02:25:30;;;;;;;;;3.00;2.33;;;;;;;;2062899;27;2755300;-81
2023/07/01 02:26:41;;;;;;;;;2.33;2.00;;;;;;;;2060231;27;2747199;-81
2023/07/01 02:27:52;;;;;;;;;3.00;3.00;;;;;;;;2068739;27;2741982;-81
2023/07/01 02:29:02;;;;;;;;;3.67;2.67;;;;;;;;2017457;27;2749262;-82
2023/07/01 02:30:13;;;;;;;;;3.00;3.00;;;;;;;;2062562;27;2732592;-81
2023/07/01 02:31:24;;;;;;;;;2.00;2.00;;;;;;;;2056569;27;2748262;-80
2023/07/01 02:32:35;;;;;;;;;2.00;2.00;;;;;;;;2055679;27;2734668;-80
2023/07/01 02:33:46;;;;;;;;;3.67;3.00;;;;;;;;2062694;27;2745128;-80
2023/07/01 02:34:58;;;;;;;;;2.50;2.50;;;;;;;;2056751;27;2733611;-80
2023/07/01 02:36:08;;;;;;;;;7.00;5.67;;;;;;;;2029859;27;2745114;-80
2023/07/01 02:37:19;;;;;;;;;3.67;3.67;;;;;;;;2037845;27;2750355;-80
2023/07/01 02:38:30;;;;;;;;;4.67;4.67;;;;;;;;2062058;27;2745067;-81
2023/07/01 02:39:42;;;;;;;;;4.00;4.00;;;;;;;;2060379;27;2752384;-80
2023/07/01 02:40:52;;;;;;;;;3.67;3.33;;;;;;;;2044104;27;2752525;-80
2023/07/01 02:42:03;;;;;;;;;5.67;4.67;;;;;;;;2059114;27;2746182;-81
2023/07/01 02:43:14;;;;;;;;;5.00;5.00;;;;;;;;2059484;27;2750359;-82
2023/07/01 02:44:25;;;;;;;;;5.00;3.67;;;;;;;;2062707;27;2754508;-82
2023/07/01 02:45:36;;;;;;;;;5.00;4.67;;;;;;;;2069159;27;2746471;-81
2023/07/01 02:46:46;;;;;;;;;4.33;3.00;;;;;;;;2043145;27;2754427;-82
2023/07/01 02:47:58;;;;;;;;;3.75;3.00;;;;;;;;2069036;27;2738173;-82
2023/07/01 02:49:11;;;;;;;;;4.33;4.00;;;;;;;;2031982;27;2749279;-82
2023/07/01 02:50:24;;;;;;;;;3.33;3.33;;;;;;;;2037787;27;2743055;-83
2023/07/01 02:51:34;;;;;;;;;4.00;4.00;;;;;;;;2015982;27;2749233;-81
2023/07/01 02:52:45;;;;;;;;;5.00;4.00;;;;;;;;2069474;27;2751818;-82
2023/07/01 02:53:56;;;;;;;;;5.00;5.00;;;;;;;;2049421;27;2752879;-82
2023/07/01 02:55:07;;;;;;;;;4.33;3.33;;;;;;;;2064378;27;2746189;-81
2023/07/01 02:56:18;;;;;;;;;5.00;5.00;;;;;;;;2059803;27;2742990;-82
2023/07/01 02:57:28;;;;;;;;;5.00;4.00;;;;;;;;2036281;27;2752459;-82
2023/07/01 02:58:39;;;;;;;;;2.00;2.00;;;;;;;;2069026;27;2736752;-82
2023/07/01 02:59:50;;;;;;;;;3.00;3.00;;;;;;;;2042485;27;2746102;-80
2023/07/01 03:01:03;;;;;;;;;3.00;3.00;;;;;;;;2067301;27;2741932;-84
2023/07/01 03:02:16;;;;;;;;;4.17;3.00;;;;;;;;2069571;27;2750355;-83
2023/07/01 03:03:30;;;;;;;;;4.67;3.00;;;;;;;;2045040;27;2750291;-83
2023/07/01 03:04:40;;;;;;;;;3.00;3.00;;;;;;;;2017924;27;2751337;-83
2023/07/01 03:05:51;;;;;;;;;3.00;2.67;;;;;;;;2064565;27;2738060;-83
2023/07/01 03:07:04;;;;;;;;;3.17;3.17;;;;;;;;2064360;27;2746158;-83
2023/07/01 03:08:14;;;;;;;;;2.67;2.00;;;;;;;;2044588;27;2746149;-83
2023/07/01 03:09:26;;;;;;;;;5.00;3.00;;;;;;;;2059742;27;2728925;-83
2023/07/01 03:10:39;;;;;;;;;2.00;1.50;;;;;;;;2062524;27;2743024;-80
2023/07/01 03:11:51;;;;;;;;;2.33;2.33;;;;;;;;2035943;27;2752496;-80
2023/07/01 03:13:04;;;;;;;;;2.00;2.00;;;;;;;;2063627;27;2738838;-80
2023/07/01 03:14:18;;;;;;;;;3.67;2.50;;;;;;;;2046961;27;2734576;-76
2023/07/01 03:15:31;;;;;;;;;2.50;2.50;;;;;;;;2040922;27;2744022;-76
2023/07/01 03:16:41;;;;;;;;;1.67;1.67;;;;;;;;2013623;27;2742045;-76
2023/07/01 03:17:52;;;;;;;;;2.00;2.00;;;;;;;;2055384;27;2744042;-75
2023/07/01 03:19:05;;;;;;;;;2.75;2.25;;;;;;;;2062966;27;2744105;-75
2023/07/01 03:20:24;;;;;;;;;4.67;3.67;;;;;;;;2043485;27;2750628;-80
2023/07/01 03:21:37;;;;;;;;;2.17;1.50;;;;;;;;2042982;27;2737813;-80
2023/07/01 03:22:50;;;;;;;;;5.00;2.17;;;;;;;;2046285;27;2754427;-80
2023/07/01 03:24:03;;;;;;;;;1.67;1.67;;;;;;;;2038647;27;2744023;-81
2023/07/01 03:25:17;;;;;;;;;2.00;2.00;;;;;;;;2033618;27;2741936;-80
2023/07/01 03:26:30;;;;;;;;;2.00;1.00;;;;;;;;2040612;27;2722179;-81
2023/07/01 03:27:40;;;;;;;;;2.67;2.00;;;;;;;;2018464;27;2753426;-81
2023/07/01 03:28:53;;;;;;;;;2.00;2.00;;;;;;;;2066655;27;2744038;-81
2023/07/01 03:30:05;;;;;;;;;3.00;3.00;;;;;;;;2044265;27;2741990;-80
2023/07/01 03:31:15;;;;;;;;;3.67;2.00;;;;;;;;2031800;27;2751048;-80
2023/07/01 03:32:26;;;;;;;;;3.00;2.00;;;;;;;;2058203;27;2744018;-80
2023/07/01 03:33:37;;;;;;;;;2.00;1.00;;;;;;;;2059396;27;2729916;-80
2023/07/01 03:34:48;;;;;;;;;2.00;2.00;;;;;;;;2027582;27;2737780;-77
2023/07/01 03:35:58;;;;;;;;;3.00;2.00;;;;;;;;2064960;27;2754432;-77
2023/07/01 03:37:09;;;;;;;;;2.00;2.00;;;;;;;;2068435;27;2741939;-77
2023/07/01 03:38:22;;;;;;;;;2.00;2.00;;;;;;;;2058457;27;2746128;-78
2023/07/01 03:39:35;;;;;;;;;2.83;1.00;;;;;;;;2028671;28;2716952;-79
2023/07/01 03:40:45;;;;;;;;;2.33;2.33;;;;;;;;2008168;27;2750309;-79
2023/07/01 03:41:56;;;;;;;;;2.67;2.00;;;;;;;;2068814;27;2739877;-79
2023/07/01 03:43:09;;;;;;;;;2.83;2.00;;;;;;;;2068449;27;2748729;-77
2023/07/01 03:44:19;;;;;;;;;4.67;2.00;;;;;;;;2035873;27;2754919;-77
2023/07/01 03:45:30;;;;;;;;;3.00;3.00;;;;;;;;2066594;27;2744026;-77
2023/07/01 03:46:40;;;;;;;;;3.33;3.33;;;;;;;;2044409;27;3464831;-77
2023/07/01 03:47:51;;;;;;;;;3.00;3.00;;;;;;;;2063995;27;2750780;-79
2023/07/01 03:49:02;;;;;;;;;5.00;5.00;;;;;;;;2048836;27;2750296;-80
2023/07/01 03:50:14;;;;;;;;;6.33;4.00;;;;;;;;2052802;27;2748230;-80
2023/07/01 03:51:29;;;;;;;;;4.00;3.00;;;;;;;;2068913;27;2748202;-80
2023/07/01 03:52:40;;;;;;;;;4.00;4.00;;;;;;;;2020734;27;2750285;-81
2023/07/01 03:53:51;;;;;;;;;2.67;2.67;;;;;;;;2053121;27;2744015;-80
2023/07/01 03:55:02;;;;;;;;;3.00;3.00;;;;;;;;2042754;27;2750362;-80
2023/07/01 03:56:13;;;;;;;;;4.33;3.00;;;;;;;;2042126;27;2744034;-80
2023/07/01 03:57:24;;;;;;;;;2.00;1.67;;;;;;;;2069351;27;2739887;-80
2023/07/01 03:58:37;;;;;;;;;3.00;3.00;;;;;;;;2066689;27;2743012;-80
2023/07/01 03:59:47;;;;;;;;;3.33;2.33;;;;;;;;2029559;27;2750322;-80
2023/07/01 04:00:58;;;;;;;;;3.00;3.00;;;;;;;;2056999;27;2749237;-80
2023/07/01 04:02:10;;;;;;;;;5.67;1.33;;;;;;;;2061144;27;2745056;-80
2023/07/01 04:03:23;;;;;;;;;3.33;2.67;;;;;;;;2039816;27;2754487;-80
2023/07/01 04:04:33;;;;;;;;;3.67;3.67;;;;;;;;2038063;27;2750348;-80
2023/07/01 04:05:44;;;;;;;;;3.00;2.00;;;;;;;;2068769;27;2744071;-81
2023/07/01 04:06:54;;;;;;;;;4.00;3.00;;;;;;;;2035865;27;2740899;-81
2023/07/01 04:08:05;;;;;;;;;3.00;3.00;;;;;;;;2060812;27;2742037;-80
2023/07/01 04:09:17;;;;;;;;;2.00;2.00;;;;;;;;2039749;27;2747226;-81
2023/07/01 04:10:30;;;;;;;;;3.33;2.83;;;;;;;;2070409;27;2736706;-80
2023/07/01 04:11:40;;;;;;;;;3.00;2.33;;;;;;;;2020586;27;2751311;-80
2023/07/01 04:12:51;;;;;;;;;6.00;5.00;;;;;;;;2067058;27;2742978;-81
2023/07/01 04:14:02;;;;;;;;;2.33;2.33;;;;;;;;2036639;27;2750354;-79
2023/07/01 04:15:14;;;;;;;;;4.40;4.40;;;;;;;;2068976;27;2747174;-81
2023/07/01 04:16:25;;;;;;;;;2.00;2.00;;;;;;;;2007204;27;2749242;-81
2023/07/01 04:17:40;;;;;;;;;4.67;4.00;;;;;;;;2057152;27;2746140;-81
2023/07/01 04:18:53;;;;;;;;;2.83;2.83;;;;;;;;2067987;27;2752365;-81
2023/07/01 04:20:06;;;;;;;;;5.00;4.00;;;;;;;;2021111;27;2752371;-80
2023/07/01 04:21:16;;;;;;;;;3.00;2.33;;;;;;;;2042736;27;2754486;-81
2023/07/01 04:22:27;;;;;;;;;4.00;2.00;;;;;;;;2067055;27;2750264;-79
2023/07/01 04:23:38;;;;;;;;;3.00;3.00;;;;;;;;2069163;27;2744054;-78
2023/07/01 04:24:51;;;;;;;;;1.50;1.50;;;;;;;;2061258;27;2739843;-78
2023/07/01 04:26:01;;;;;;;;;2.00;2.00;;;;;;;;2044001;27;2754436;-78
2023/07/01 04:27:12;;;;;;;;;1.33;1.33;;;;;;;;2069126;27;2737786;-78
2023/07/01 04:28:25;;;;;;;;;1.33;1.33;;;;;;;;2061600;27;2727345;-79
2023/07/01 04:29:38;;;;;;;;;2.50;2.50;;;;;;;;2053963;27;2750768;-85
2023/07/01 04:30:51;;;;;;;;;2.67;2.67;;;;;;;;2036474;27;2748197;-79
2023/07/01 04:32:01;;;;;;;;;2.00;2.00;;;;;;;;2011276;27;2748162;-80
2023/07/01 04:33:12;;;;;;;;;2.00;2.00;;;;;;;;2054018;27;2751405;-79
2023/07/01 04:34:23;;;;;;;;;2.00;2.00;;;;;;;;2064892;27;2739161;-78
2023/07/01 04:35:35;;;;;;;;;2.00;2.00;;;;;;;;2066973;27;2736735;-78
2023/07/01 04:36:48;;;;;;;;;2.33;1.83;;;;;;;;2029964;27;2744068;-78
2023/07/01 04:37:59;;;;;;;;;3.00;3.00;;;;;;;;2012282;27;2754443;-78
2023/07/01 04:39:12;;;;;;;;;2.33;2.33;;;;;;;;2062350;27;2748213;-78
2023/07/01 04:40:25;;;;;;;;;2.67;2.00;;;;;;;;2063249;27;2748196;-87
2023/07/01 04:41:36;;;;;;;;;3.67;2.00;;;;;;;;2007617;27;2748245;-87
2023/07/01 04:42:49;;;;;;;;;1.00;1.00;;;;;;;;2057090;27;2735712;-88
2023/07/01 04:44:03;;;;;;;;;2.00;2.00;;;;;;;;2037853;27;2735713;-87
2023/07/01 04:45:18;;;;;;;;;2.83;1.67;;;;;;;;2038050;27;2740946;-88
2023/07/01 04:46:31;;;;;;;;;1.00;1.00;;;;;;;;2030045;28;2727744;-86
2023/07/01 04:47:45;;;;;;;;;1.67;1.67;;;;;;;;2036911;27;2723661;-83
2023/07/01 04:49:01;;;;;;;;;1.33;1.33;;;;;;;;2037076;27;2726343;-84
2023/07/01 04:50:14;;;;;;;;;1.50;1.00;;;;;;;;2029550;27;2720116;-80
2023/07/01 04:51:27;;;;;;;;;1.83;1.00;;;;;;;;2038715;27;2729464;-89
2023/07/01 04:52:41;;;;;;;;;2.00;2.00;;;;;;;;2034917;27;2735694;-89
2023/07/01 04:53:54;;;;;;;;;1.83;1.83;;;;;;;;2038692;27;2738240;-89
2023/07/01 04:55:07;;;;;;;;;1.00;1.00;;;;;;;;2046625;27;2725727;-88
2023/07/01 04:56:23;;;;;;;;;2.00;1.33;;;;;;;;2037140;27;2737769;-89
2023/07/01 04:57:34;;;;;;;;;2.00;2.00;;;;;;;;2012508;27;2750369;-81
2023/07/01 04:58:44;;;;;;;;;1.67;1.00;;;;;;;;2062736;27;2729476;-82
2023/07/01 04:59:57;;;;;;;;;1.00;1.00;;;;;;;;2066466;27;2729794;-81
2023/07/01 05:01:10;;;;;;;;;1.00;1.00;;;;;;;;2039243;27;2729464;-82
2023/07/01 05:02:23;;;;;;;;;2.50;1.00;;;;;;;;2032358;27;2731530;-81
2023/07/01 05:03:36;;;;;;;;;1.50;1.00;;;;;;;;2030161;27;2727358;-83
2023/07/01 05:04:49;;;;;;;;;1.17;1.17;;;;;;;;2026160;27;2735737;-83
2023/07/01 05:06:03;;;;;;;;;0.50;0.50;;;;;;;;2032514;27;2731523;-84
2023/07/01 05:07:16;;;;;;;;;1.00;1.00;;;;;;;;2033101;27;2733630;-84
2023/07/01 05:08:29;;;;;;;;;1.17;1.17;;;;;;;;2030595;27;2725305;-84
2023/07/01 05:09:42;;;;;;;;;1.50;1.50;;;;;;;;2038114;27;2722151;-83
2023/07/01 05:10:55;;;;;;;;;2.00;1.00;;;;;;;;2044918;27;2736043;-83
2023/07/01 05:12:08;;;;;;;;;2.00;2.00;;;;;;;;2046512;27;2739875;-83
2023/07/01 05:13:21;;;;;;;;;2.67;1.50;;;;;;;;2045344;27;2735670;-83
2023/07/01 05:14:34;;;;;;;;;0.83;0.83;;;;;;;;2035213;27;2724248;-83
2023/07/01 05:15:47;;;;;;;;;1.50;1.50;;;;;;;;2037561;27;2741946;-84
2023/07/01 05:17:00;;;;;;;;;1.50;1.50;;;;;;;;2046252;27;2733613;-86
2023/07/01 05:18:13;;;;;;;;;1.00;1.00;;;;;;;;2045645;27;2737785;-86
2023/07/01 05:19:26;;;;;;;;;3.17;1.83;;;;;;;;2046500;27;2745142;-86
2023/07/01 05:20:39;;;;;;;;;1.17;1.17;;;;;;;;2039322;27;2729475;-86
2023/07/01 05:21:53;;;;;;;;;2.00;2.00;;;;;;;;2029092;28;2745066;-85
2023/07/01 05:23:06;;;;;;;;;1.67;1.67;;;;;;;;2033700;27;2736712;-85
2023/07/01 05:24:19;;;;;;;;;1.00;1.00;;;;;;;;2046237;27;2720111;-84
2023/07/01 05:25:32;;;;;;;;;1.00;1.00;;;;;;;;2046338;27;2727847;-84
2023/07/01 05:26:46;;;;;;;;;1.00;1.00;;;;;;;;2045799;27;2728401;-84
2023/07/01 05:27:59;;;;;;;;;1.83;1.00;;;;;;;;2044813;27;2726331;-84
2023/07/01 05:29:12;;;;;;;;;2.33;1.00;;;;;;;;2030770;27;2734707;-84
2023/07/01 05:30:26;;;;;;;;;1.67;1.67;;;;;;;;2022105;28;2737769;-82
2023/07/01 05:31:39;;;;;;;;;1.33;1.33;;;;;;;;2029270;27;2729488;-81
2023/07/01 05:32:51;;;;;;;;;1.17;1.17;;;;;;;;2062412;27;2725282;-82
2023/07/01 05:34:05;;;;;;;;;0.00;0.00;;;;;;;;2046501;27;2727360;-82
2023/07/01 05:35:18;;;;;;;;;1.50;1.00;;;;;;;;2038140;27;2730993;-83
2023/07/01 05:36:31;;;;;;;;;2.17;1.83;;;;;;;;2029646;28;2736732;-83
2023/07/01 05:37:44;;;;;;;;;1.00;1.00;;;;;;;;2034686;27;2719076;-82
2023/07/01 05:38:57;;;;;;;;;1.67;1.00;;;;;;;;2038593;27;2725349;-82
2023/07/01 05:40:12;;;;;;;;;0.83;0.83;;;;;;;;2046710;27;2726323;-83
2023/07/01 05:41:25;;;;;;;;;1.00;1.00;;;;;;;;2038455;27;2722148;-83
2023/07/01 05:42:38;;;;;;;;;1.00;1.00;;;;;;;;2037250;27;2731539;-83
2023/07/01 05:43:53;;;;;;;;;0.50;0.50;;;;;;;;2038918;27;2727361;-83
2023/07/01 05:45:06;;;;;;;;;0.33;0.33;;;;;;;;2040280;27;2722137;-83
2023/07/01 05:46:19;;;;;;;;;0.83;0.83;;;;;;;;2039135;27;2739889;-83
2023/07/01 05:47:32;;;;;;;;;0.50;0.17;;;;;;;;2045695;27;2722133;-83
2023/07/01 05:48:43;;;;;;;;;2.67;2.00;;;;;;;;2020204;27;2746113;-83
2023/07/01 05:49:54;;;;;;;;;1.00;1.00;;;;;;;;2069874;27;2725359;-82
2023/07/01 05:51:06;;;;;;;;;0.60;0.60;;;;;;;;2066167;27;2733695;-83
2023/07/01 05:52:20;;;;;;;;;2.83;1.00;;;;;;;;2046972;27;2726328;-83
2023/07/01 05:53:34;;;;;;;;;0.83;0.83;;;;;;;;2045733;27;2724232;-83
2023/07/01 05:54:46;;;;;;;;;1.00;1.00;;;;;;;;2039376;27;2717260;-81
2023/07/01 05:55:59;;;;;;;;;1.00;1.00;;;;;;;;2042527;27;2728474;-87
2023/07/01 05:57:12;;;;;;;;;1.33;1.17;;;;;;;;2029836;27;2728383;-84
2023/07/01 05:58:25;;;;;;;;;1.17;1.17;;;;;;;;2034181;27;2737766;-84
2023/07/01 05:59:39;;;;;;;;;0.00;0.00;;;;;;;;2042485;27;2709669;-82
2023/07/01 06:00:52;;;;;;;;;2.00;1.00;;;;;;;;2042921;27;2731891;-82
2023/07/01 06:02:05;;;;;;;;;2.00;1.00;;;;;;;;2039843;27;2727404;-82
2023/07/01 06:03:18;;;;;;;;;1.33;1.33;;;;;;;;2039442;27;2722168;-83
2023/07/01 06:04:31;;;;;;;;;0.83;0.83;;;;;;;;2027612;27;2723190;-79
2023/07/01 06:05:44;;;;;;;;;0.67;0.67;;;;;;;;2032635;27;2729500;-86
2023/07/01 06:06:57;;;;;;;;;1.00;0.33;;;;;;;;2043233;27;2734663;-86
2023/07/01 06:08:10;;;;;;;;;0.67;0.00;;;;;;;;2045644;27;2725369;-87
2023/07/01 06:09:23;;;;;;;;;2.00;0.67;;;;;;;;2043413;27;2728386;-85
2023/07/01 06:10:37;;;;;;;;;1.00;1.00;;;;;;;;2046782;27;2729539;-84
2023/07/01 06:11:50;;;;;;;;;1.00;1.00;;;;;;;;2046306;27;2733621;-83
2023/07/01 06:13:03;;;;;;;;;1.00;1.00;;;;;;;;2035904;27;2725309;-83
2023/07/01 06:14:16;;;;;;;;;0.67;0.67;;;;;;;;2027270;27;2731511;-83
2023/07/01 06:15:29;;;;;;;;;2.33;1.00;;;;;;;;2034128;27;2720084;-84
2023/07/01 06:16:42;;;;;;;;;0.50;0.50;;;;;;;;2061537;27;2729512;-77
2023/07/01 06:17:55;;;;;;;;;1.00;1.00;;;;;;;;2034986;27;2732562;-77
2023/07/01 06:19:08;;;;;;;;;1.00;1.00;;;;;;;;2040467;27;2733670;-77
2023/07/01 06:20:21;;;;;;;;;1.00;1.00;;;;;;;;2041285;27;2724728;-77
2023/07/01 06:21:34;;;;;;;;;2.50;1.00;;;;;;;;2046288;27;2725265;-77
2023/07/01 06:22:47;;;;;;;;;2.17;1.00;;;;;;;;2038706;27;2735767;-77
2023/07/01 06:24:00;;;;;;;;;0.00;0.00;;;;;;;;2030909;28;2725293;-77
2023/07/01 06:25:13;;;;;;;;;1.00;0.67;;;;;;;;2032092;27;2727369;-77
2023/07/01 06:26:26;;;;;;;;;1.00;1.00;;;;;;;;2048133;27;2729428;-77
2023/07/01 06:27:39;;;;;;;;;1.00;1.00;;;;;;;;2070090;27;2726335;-77
2023/07/01 06:28:52;;;;;;;;;0.00;0.00;;;;;;;;2039002;27;2725338;-76
2023/07/01 06:30:06;;;;;;;;;1.17;1.00;;;;;;;;2044683;27;2729924;-79
2023/07/01 06:31:19;;;;;;;;;0.33;0.33;;;;;;;;2030792;27;2731531;-77
2023/07/01 06:32:32;;;;;;;;;0.00;0.00;;;;;;;;2039661;27;2725266;-77
2023/07/01 06:33:45;;;;;;;;;1.17;1.00;;;;;;;;2038289;27;2737805;-77
2023/07/01 06:34:58;;;;;;;;;1.00;1.00;;;;;;;;2040915;27;2724256;-77
2023/07/01 06:36:12;;;;;;;;;0.17;0.17;;;;;;;;2044737;27;2728414;-77
2023/07/01 06:37:25;;;;;;;;;1.00;1.00;;;;;;;;2038773;27;2725366;-78
2023/07/01 06:38:40;;;;;;;;;1.00;1.00;;;;;;;;2037103;27;2725324;-77
2023/07/01 06:39:53;;;;;;;;;0.17;0.17;;;;;;;;2042404;27;2726678;-77
2023/07/01 06:41:06;;;;;;;;;0.00;0.00;;;;;;;;2047100;27;2724243;-77
2023/07/01 06:42:19;;;;;;;;;0.17;0.17;;;;;;;;2039056;27;2726402;-77
2023/07/01 06:43:35;;;;;;;;;1.00;1.00;;;;;;;;2033327;27;2733599;-76
2023/07/01 06:44:48;;;;;;;;;1.00;0.83;;;;;;;;2041428;27;2737789;-77
2023/07/01 06:46:02;;;;;;;;;0.00;0.00;;;;;;;;2032852;27;2733610;-77
2023/07/01 06:47:15;;;;;;;;;1.00;1.00;;;;;;;;2037875;27;2726324;-76
2023/07/01 06:48:28;;;;;;;;;1.00;1.00;;;;;;;;2039432;27;2733670;-76
2023/07/01 06:49:41;;;;;;;;;1.67;0.17;;;;;;;;2042607;27;2722203;-76
2023/07/01 06:50:54;;;;;;;;;1.00;1.00;;;;;;;;2064733;27;2728414;-76
2023/07/01 06:52:08;;;;;;;;;1.33;1.33;;;;;;;;2046096;27;2725319;-76
2023/07/01 06:53:21;;;;;;;;;1.83;1.00;;;;;;;;2044109;27;2722160;-76
2023/07/01 06:54:34;;;;;;;;;0.50;0.50;;;;;;;;2046083;27;2729437;-78
2023/07/01 06:55:47;;;;;;;;;1.00;1.00;;;;;;;;2039738;27;2729515;-77
2023/07/01 06:57:00;;;;;;;;;0.00;0.00;;;;;;;;2046234;27;2725293;-76
2023/07/01 06:58:13;;;;;;;;;1.17;1.17;;;;;;;;2046234;27;2732568;-76
2023/07/01 06:59:26;;;;;;;;;1.17;0.33;;;;;;;;2036107;27;2729952;-76
2023/07/01 07:00:39;;;;;;;;;1.67;0.33;;;;;;;;2037588;27;2721131;-76